Terminal Aerodrome Forecast
Issued by NWS Paducah, KY

Home | Current Version | Previous Version | Text Only | Print | Product List | Glossary On
Versions: 1 2 3 4 5 6 7 8 9 10 11 12 13 14 15 16 17 18
000
FTUS43 KPAH 040523
TAFPAH
TAF
KPAH 040523Z 0406/0506 36006KT 3SM -RA BR BKN003
      TEMPO 0406/0410 2SM RA BR FEW003 OVC025
     FM041400 01012G18KT 3SM -PLSN BR OVC015
     FM042100 01015G21KT 2SM -SN BR OVC020=

USA.gov is the U.S. government's official web portal to all federal, state and local government web resources and services.